sensor_id;sensor_type;location;lat;lon;timestamp;P1;durP1;ratioP1;P2;durP2;ratioP2
5127;SDS011;2582;48.770;9.190;2023-04-25T00:01:59;2.40;;;2.20;;
5127;SDS011;2582;48.770;9.190;2023-04-25T00:04:25;3.60;;;2.40;;
5127;SDS011;2582;48.770;9.190;2023-04-25T00:06:51;2.33;;;2.13;;
5127;SDS011;2582;48.770;9.190;2023-04-25T00:09:19;2.77;;;1.93;;
5127;SDS011;2582;48.770;9.190;2023-04-25T00:11:44;3.87;;;2.10;;
5127;SDS011;2582;48.770;9.190;2023-04-25T00:14:10;3.13;;;2.20;;
5127;SDS011;2582;48.770;9.190;2023-04-25T00:16:35;1.90;;;1.63;;
5127;SDS011;2582;48.770;9.190;2023-04-25T00:19:01;4.90;;;2.67;;
5127;SDS011;2582;48.770;9.190;2023-04-25T00:21:29;5.27;;;2.13;;
5127;SDS011;2582;48.770;9.190;2023-04-25T00:23:56;3.07;;;1.90;;
5127;SDS011;2582;48.770;9.190;2023-04-25T00:26:22;1.83;;;1.70;;
5127;SDS011;2582;48.770;9.190;2023-04-25T00:28:48;3.20;;;2.10;;
5127;SDS011;2582;48.770;9.190;2023-04-25T00:31:13;2.50;;;1.70;;
5127;SDS011;2582;48.770;9.190;2023-04-25T00:33:39;5.77;;;4.40;;
5127;SDS011;2582;48.770;9.190;2023-04-25T00:36:05;1.97;;;1.87;;
5127;SDS011;2582;48.770;9.190;2023-04-25T00:38:31;2.37;;;1.90;;
5127;SDS011;2582;48.770;9.190;2023-04-25T00:40:57;2.13;;;1.80;;
5127;SDS011;2582;48.770;9.190;2023-04-25T00:43:24;1.83;;;1.70;;
5127;SDS011;2582;48.770;9.190;2023-04-25T00:45:51;3.10;;;2.30;;
5127;SDS011;2582;48.770;9.190;2023-04-25T00:48:17;1.90;;;1.70;;
5127;SDS011;2582;48.770;9.190;2023-04-25T00:50:45;1.67;;;1.57;;
5127;SDS011;2582;48.770;9.190;2023-04-25T00:53:17;2.10;;;1.90;;
5127;SDS011;2582;48.770;9.190;2023-04-25T00:55:43;2.30;;;2.00;;
5127;SDS011;2582;48.770;9.190;2023-04-25T00:58:09;2.23;;;1.90;;
5127;SDS011;2582;48.770;9.190;2023-04-25T01:00:35;3.23;;;2.20;;
5127;SDS011;2582;48.770;9.190;2023-04-25T01:03:01;3.40;;;2.23;;
5127;SDS011;2582;48.770;9.190;2023-04-25T01:05:28;2.60;;;2.20;;
5127;SDS011;2582;48.770;9.190;2023-04-25T01:07:54;2.27;;;2.07;;
5127;SDS011;2582;48.770;9.190;2023-04-25T01:10:20;4.13;;;1.97;;
5127;SDS011;2582;48.770;9.190;2023-04-25T01:12:45;2.57;;;2.33;;
5127;SDS011;2582;48.770;9.190;2023-04-25T01:15:11;3.00;;;2.70;;
5127;SDS011;2582;48.770;9.190;2023-04-25T01:17:37;2.90;;;2.10;;
5127;SDS011;2582;48.770;9.190;2023-04-25T01:20:04;3.57;;;2.90;;
5127;SDS011;2582;48.770;9.190;2023-04-25T01:22:31;3.40;;;2.43;;
5127;SDS011;2582;48.770;9.190;2023-04-25T01:24:57;2.97;;;2.17;;
5127;SDS011;2582;48.770;9.190;2023-04-25T01:27:23;3.00;;;2.07;;
5127;SDS011;2582;48.770;9.190;2023-04-25T01:29:50;3.17;;;2.90;;
5127;SDS011;2582;48.770;9.190;2023-04-25T01:32:16;2.87;;;2.57;;
5127;SDS011;2582;48.770;9.190;2023-04-25T01:34:42;2.30;;;2.10;;
5127;SDS011;2582;48.770;9.190;2023-04-25T01:37:08;3.30;;;3.00;;
5127;SDS011;2582;48.770;9.190;2023-04-25T01:39:33;2.63;;;2.43;;
5127;SDS011;2582;48.770;9.190;2023-04-25T01:41:59;2.73;;;2.53;;
5127;SDS011;2582;48.770;9.190;2023-04-25T01:44:25;2.57;;;2.07;;
5127;SDS011;2582;48.770;9.190;2023-04-25T01:46:51;3.23;;;2.40;;
5127;SDS011;2582;48.770;9.190;2023-04-25T01:49:16;4.53;;;2.80;;
5127;SDS011;2582;48.770;9.190;2023-04-25T01:51:42;2.63;;;2.40;;
5127;SDS011;2582;48.770;9.190;2023-04-25T01:54:08;2.63;;;2.20;;
5127;SDS011;2582;48.770;9.190;2023-04-25T01:56:36;4.20;;;2.50;;
5127;SDS011;2582;48.770;9.190;2023-04-25T01:59:03;2.27;;;2.07;;
5127;SDS011;2582;48.770;9.190;2023-04-25T02:01:29;5.13;;;3.27;;
5127;SDS011;2582;48.770;9.190;2023-04-25T02:03:55;3.10;;;2.30;;
5127;SDS011;2582;48.770;9.190;2023-04-25T02:06:20;3.07;;;2.80;;
5127;SDS011;2582;48.770;9.190;2023-04-25T02:08:46;4.97;;;2.93;;
5127;SDS011;2582;48.770;9.190;2023-04-25T02:11:11;3.10;;;2.80;;
5127;SDS011;2582;48.770;9.190;2023-04-25T02:13:37;3.33;;;3.03;;
5127;SDS011;2582;48.770;9.190;2023-04-25T02:16:03;2.87;;;2.63;;
5127;SDS011;2582;48.770;9.190;2023-04-25T02:18:28;4.20;;;3.10;;
5127;SDS011;2582;48.770;9.190;2023-04-25T02:20:54;2.97;;;2.73;;
5127;SDS011;2582;48.770;9.190;2023-04-25T02:23:19;5.10;;;3.23;;
5127;SDS011;2582;48.770;9.190;2023-04-25T02:25:45;3.17;;;2.80;;
5127;SDS011;2582;48.770;9.190;2023-04-25T02:28:11;2.83;;;2.33;;
5127;SDS011;2582;48.770;9.190;2023-04-25T02:30:36;3.77;;;2.97;;
5127;SDS011;2582;48.770;9.190;2023-04-25T02:33:02;3.03;;;2.50;;
5127;SDS011;2582;48.770;9.190;2023-04-25T02:35:28;3.00;;;2.50;;
5127;SDS011;2582;48.770;9.190;2023-04-25T02:37:53;3.33;;;2.27;;
5127;SDS011;2582;48.770;9.190;2023-04-25T02:40:19;3.40;;;2.50;;
5127;SDS011;2582;48.770;9.190;2023-04-25T02:42:44;3.47;;;2.57;;
5127;SDS011;2582;48.770;9.190;2023-04-25T02:45:13;3.70;;;2.50;;
5127;SDS011;2582;48.770;9.190;2023-04-25T02:47:39;3.07;;;2.50;;
5127;SDS011;2582;48.770;9.190;2023-04-25T02:50:05;4.03;;;2.77;;
5127;SDS011;2582;48.770;9.190;2023-04-25T02:52:31;2.70;;;2.10;;
5127;SDS011;2582;48.770;9.190;2023-04-25T02:54:57;3.40;;;2.40;;
5127;SDS011;2582;48.770;9.190;2023-04-25T02:57:22;3.30;;;2.30;;
5127;SDS011;2582;48.770;9.190;2023-04-25T02:59:48;2.77;;;2.57;;
5127;SDS011;2582;48.770;9.190;2023-04-25T03:02:13;3.27;;;2.30;;
5127;SDS011;2582;48.770;9.190;2023-04-25T03:04:39;2.73;;;2.27;;
5127;SDS011;2582;48.770;9.190;2023-04-25T03:07:04;4.10;;;2.57;;
5127;SDS011;2582;48.770;9.190;2023-04-25T03:09:30;2.73;;;2.53;;
5127;SDS011;2582;48.770;9.190;2023-04-25T03:11:56;2.57;;;2.37;;
5127;SDS011;2582;48.770;9.190;2023-04-25T03:14:21;2.43;;;2.23;;
5127;SDS011;2582;48.770;9.190;2023-04-25T03:16:47;2.50;;;2.30;;
5127;SDS011;2582;48.770;9.190;2023-04-25T03:19:12;3.37;;;2.90;;
5127;SDS011;2582;48.770;9.190;2023-04-25T03:21:40;5.63;;;2.47;;
5127;SDS011;2582;48.770;9.190;2023-04-25T03:24:06;3.70;;;2.83;;
5127;SDS011;2582;48.770;9.190;2023-04-25T03:26:32;4.30;;;2.73;;
5127;SDS011;2582;48.770;9.190;2023-04-25T03:28:57;2.67;;;2.43;;
5127;SDS011;2582;48.770;9.190;2023-04-25T03:31:23;2.47;;;2.27;;
5127;SDS011;2582;48.770;9.190;2023-04-25T03:33:49;3.40;;;2.23;;
5127;SDS011;2582;48.770;9.190;2023-04-25T03:36:14;3.33;;;2.30;;
5127;SDS011;2582;48.770;9.190;2023-04-25T03:38:40;2.40;;;2.13;;
5127;SDS011;2582;48.770;9.190;2023-04-25T03:41:08;2.77;;;2.57;;
5127;SDS011;2582;48.770;9.190;2023-04-25T03:43:34;2.87;;;2.63;;
5127;SDS011;2582;48.770;9.190;2023-04-25T03:45:59;8.33;;;4.43;;
5127;SDS011;2582;48.770;9.190;2023-04-25T03:48:25;5.60;;;5.10;;
5127;SDS011;2582;48.770;9.190;2023-04-25T03:50:52;3.67;;;3.10;;
5127;SDS011;2582;48.770;9.190;2023-04-25T03:53:18;4.63;;;4.20;;
5127;SDS011;2582;48.770;9.190;2023-04-25T03:55:43;4.70;;;4.30;;
5127;SDS011;2582;48.770;9.190;2023-04-25T03:58:09;5.57;;;5.07;;
5127;SDS011;2582;48.770;9.190;2023-04-25T04:00:35;4.87;;;4.37;;
5127;SDS011;2582;48.770;9.190;2023-04-25T04:03:00;5.50;;;5.00;;
5127;SDS011;2582;48.770;9.190;2023-04-25T04:05:26;5.57;;;4.73;;
5127;SDS011;2582;48.770;9.190;2023-04-25T04:07:52;5.87;;;5.37;;
5127;SDS011;2582;48.770;9.190;2023-04-25T04:10:18;5.50;;;5.07;;
5127;SDS011;2582;48.770;9.190;2023-04-25T04:12:43;5.13;;;4.70;;
5127;SDS011;2582;48.770;9.190;2023-04-25T04:15:09;3.73;;;3.43;;
5127;SDS011;2582;48.770;9.190;2023-04-25T04:17:35;4.17;;;3.40;;
5127;SDS011;2582;48.770;9.190;2023-04-25T04:20:01;4.03;;;3.57;;
5127;SDS011;2582;48.770;9.190;2023-04-25T04:22:28;4.20;;;3.80;;
5127;SDS011;2582;48.770;9.190;2023-04-25T04:24:53;3.90;;;3.50;;
5127;SDS011;2582;48.770;9.190;2023-04-25T04:27:19;5.50;;;4.97;;
5127;SDS011;2582;48.770;9.190;2023-04-25T04:29:46;4.87;;;4.40;;
5127;SDS011;2582;48.770;9.190;2023-04-25T04:32:12;4.90;;;3.87;;
5127;SDS011;2582;48.770;9.190;2023-04-25T04:34:39;5.17;;;4.70;;
5127;SDS011;2582;48.770;9.190;2023-04-25T04:37:04;3.93;;;3.63;;
5127;SDS011;2582;48.770;9.190;2023-04-25T04:39:32;6.13;;;4.43;;
5127;SDS011;2582;48.770;9.190;2023-04-25T04:41:58;3.83;;;3.53;;
5127;SDS011;2582;48.770;9.190;2023-04-25T04:44:24;3.90;;;3.17;;
5127;SDS011;2582;48.770;9.190;2023-04-25T04:46:50;3.93;;;2.83;;
5127;SDS011;2582;48.770;9.190;2023-04-25T04:49:16;3.37;;;3.07;;
5127;SDS011;2582;48.770;9.190;2023-04-25T04:51:42;5.10;;;2.93;;
5127;SDS011;2582;48.770;9.190;2023-04-25T04:54:11;5.23;;;3.60;;
5127;SDS011;2582;48.770;9.190;2023-04-25T04:56:37;3.40;;;3.10;;
5127;SDS011;2582;48.770;9.190;2023-04-25T04:59:03;3.47;;;3.17;;
5127;SDS011;2582;48.770;9.190;2023-04-25T05:01:28;3.23;;;2.93;;
5127;SDS011;2582;48.770;9.190;2023-04-25T05:03:57;4.50;;;3.30;;
5127;SDS011;2582;48.770;9.190;2023-04-25T05:06:25;3.40;;;3.10;;
5127;SDS011;2582;48.770;9.190;2023-04-25T05:08:51;4.37;;;3.37;;
5127;SDS011;2582;48.770;9.190;2023-04-25T05:11:18;2.73;;;2.53;;
5127;SDS011;2582;48.770;9.190;2023-04-25T05:13:44;4.80;;;3.37;;
5127;SDS011;2582;48.770;9.190;2023-04-25T05:16:10;4.30;;;3.90;;
5127;SDS011;2582;48.770;9.190;2023-04-25T05:18:36;4.47;;;2.93;;
5127;SDS011;2582;48.770;9.190;2023-04-25T05:21:02;3.20;;;2.90;;
5127;SDS011;2582;48.770;9.190;2023-04-25T05:23:27;3.37;;;3.00;;
5127;SDS011;2582;48.770;9.190;2023-04-25T05:25:54;4.70;;;3.77;;
5127;SDS011;2582;48.770;9.190;2023-04-25T05:28:20;5.90;;;3.67;;
5127;SDS011;2582;48.770;9.190;2023-04-25T05:30:46;5.80;;;4.10;;
5127;SDS011;2582;48.770;9.190;2023-04-25T05:33:11;3.40;;;3.10;;
5127;SDS011;2582;48.770;9.190;2023-04-25T05:35:37;4.37;;;3.67;;
5127;SDS011;2582;48.770;9.190;2023-04-25T05:38:02;4.40;;;4.00;;
5127;SDS011;2582;48.770;9.190;2023-04-25T05:40:28;3.63;;;3.33;;
5127;SDS011;2582;48.770;9.190;2023-04-25T05:42:53;4.70;;;3.60;;
5127;SDS011;2582;48.770;9.190;2023-04-25T05:45:19;6.67;;;3.77;;
5127;SDS011;2582;48.770;9.190;2023-04-25T05:47:45;3.87;;;3.47;;
5127;SDS011;2582;48.770;9.190;2023-04-25T05:50:10;4.40;;;3.50;;
5127;SDS011;2582;48.770;9.190;2023-04-25T05:52:36;3.87;;;3.47;;
5127;SDS011;2582;48.770;9.190;2023-04-25T05:55:01;5.93;;;3.47;;
5127;SDS011;2582;48.770;9.190;2023-04-25T05:57:27;6.90;;;3.87;;
5127;SDS011;2582;48.770;9.190;2023-04-25T05:59:52;4.13;;;2.90;;
5127;SDS011;2582;48.770;9.190;2023-04-25T06:02:19;3.20;;;2.80;;
5127;SDS011;2582;48.770;9.190;2023-04-25T06:04:46;3.00;;;2.70;;
5127;SDS011;2582;48.770;9.190;2023-04-25T06:07:12;3.10;;;2.63;;
5127;SDS011;2582;48.770;9.190;2023-04-25T06:09:38;3.90;;;3.47;;
5127;SDS011;2582;48.770;9.190;2023-04-25T06:12:05;2.80;;;2.60;;
5127;SDS011;2582;48.770;9.190;2023-04-25T06:14:31;5.30;;;3.03;;
5127;SDS011;2582;48.770;9.190;2023-04-25T06:16:56;3.50;;;2.90;;
5127;SDS011;2582;48.770;9.190;2023-04-25T06:19:22;3.00;;;2.80;;
5127;SDS011;2582;48.770;9.190;2023-04-25T06:21:47;3.47;;;3.00;;
5127;SDS011;2582;48.770;9.190;2023-04-25T06:24:13;5.00;;;3.60;;
5127;SDS011;2582;48.770;9.190;2023-04-25T06:26:39;4.93;;;3.27;;
5127;SDS011;2582;48.770;9.190;2023-04-25T06:29:04;3.67;;;3.00;;
5127;SDS011;2582;48.770;9.190;2023-04-25T06:31:30;3.43;;;3.07;;
5127;SDS011;2582;48.770;9.190;2023-04-25T06:33:57;4.60;;;2.90;;
5127;SDS011;2582;48.770;9.190;2023-04-25T06:36:23;6.10;;;3.27;;
5127;SDS011;2582;48.770;9.190;2023-04-25T06:38:51;3.70;;;3.40;;
5127;SDS011;2582;48.770;9.190;2023-04-25T06:41:17;4.57;;;3.30;;
5127;SDS011;2582;48.770;9.190;2023-04-25T06:43:43;3.30;;;3.00;;
5127;SDS011;2582;48.770;9.190;2023-04-25T06:46:08;4.07;;;3.33;;
5127;SDS011;2582;48.770;9.190;2023-04-25T06:48:34;3.20;;;2.60;;
5127;SDS011;2582;48.770;9.190;2023-04-25T06:50:59;3.67;;;3.37;;
5127;SDS011;2582;48.770;9.190;2023-04-25T06:53:25;6.83;;;3.50;;
5127;SDS011;2582;48.770;9.190;2023-04-25T06:55:51;3.40;;;3.10;;
5127;SDS011;2582;48.770;9.190;2023-04-25T06:58:17;4.10;;;3.33;;
5127;SDS011;2582;48.770;9.190;2023-04-25T07:00:42;4.23;;;3.83;;
5127;SDS011;2582;48.770;9.190;2023-04-25T07:03:08;4.67;;;3.50;;
5127;SDS011;2582;48.770;9.190;2023-04-25T07:05:34;3.40;;;3.10;;
5127;SDS011;2582;48.770;9.190;2023-04-25T07:08:00;3.00;;;2.80;;
5127;SDS011;2582;48.770;9.190;2023-04-25T07:10:25;4.60;;;2.97;;
5127;SDS011;2582;48.770;9.190;2023-04-25T07:12:51;3.90;;;3.60;;
5127;SDS011;2582;48.770;9.190;2023-04-25T07:15:17;3.40;;;3.10;;
5127;SDS011;2582;48.770;9.190;2023-04-25T07:17:42;3.53;;;3.23;;
5127;SDS011;2582;48.770;9.190;2023-04-25T07:20:08;3.40;;;3.13;;
5127;SDS011;2582;48.770;9.190;2023-04-25T07:22:35;4.40;;;4.10;;
5127;SDS011;2582;48.770;9.190;2023-04-25T07:25:00;4.23;;;3.83;;
5127;SDS011;2582;48.770;9.190;2023-04-25T07:27:26;5.97;;;4.10;;
5127;SDS011;2582;48.770;9.190;2023-04-25T07:29:52;4.50;;;4.10;;
5127;SDS011;2582;48.770;9.190;2023-04-25T07:32:18;4.67;;;3.87;;
5127;SDS011;2582;48.770;9.190;2023-04-25T07:34:44;4.23;;;3.83;;
5127;SDS011;2582;48.770;9.190;2023-04-25T07:37:09;4.43;;;4.03;;
5127;SDS011;2582;48.770;9.190;2023-04-25T07:39:35;4.50;;;4.10;;
5127;SDS011;2582;48.770;9.190;2023-04-25T07:42:02;4.80;;;4.23;;
5127;SDS011;2582;48.770;9.190;2023-04-25T07:44:28;5.20;;;4.70;;
5127;SDS011;2582;48.770;9.190;2023-04-25T07:46:55;4.80;;;4.33;;
5127;SDS011;2582;48.770;9.190;2023-04-25T07:49:21;4.57;;;4.17;;
5127;SDS011;2582;48.770;9.190;2023-04-25T07:51:46;4.10;;;3.77;;
5127;SDS011;2582;48.770;9.190;2023-04-25T07:54:13;4.30;;;3.90;;
5127;SDS011;2582;48.770;9.190;2023-04-25T07:56:40;5.93;;;4.40;;
5127;SDS011;2582;48.770;9.190;2023-04-25T07:59:06;4.70;;;4.30;;
5127;SDS011;2582;48.770;9.190;2023-04-25T08:01:33;5.27;;;4.87;;
5127;SDS011;2582;48.770;9.190;2023-04-25T08:03:59;5.23;;;4.70;;
5127;SDS011;2582;48.770;9.190;2023-04-25T08:06:25;5.83;;;5.23;;
5127;SDS011;2582;48.770;9.190;2023-04-25T08:08:51;5.93;;;5.43;;
5127;SDS011;2582;48.770;9.190;2023-04-25T08:11:16;4.87;;;4.37;;
5127;SDS011;2582;48.770;9.190;2023-04-25T08:13:42;6.23;;;5.43;;
5127;SDS011;2582;48.770;9.190;2023-04-25T08:16:07;6.30;;;5.70;;
5127;SDS011;2582;48.770;9.190;2023-04-25T08:18:33;4.77;;;4.20;;
5127;SDS011;2582;48.770;9.190;2023-04-25T08:20:58;6.07;;;4.93;;
5127;SDS011;2582;48.770;9.190;2023-04-25T08:23:24;4.83;;;4.40;;
5127;SDS011;2582;48.770;9.190;2023-04-25T08:25:50;5.83;;;5.20;;
5127;SDS011;2582;48.770;9.190;2023-04-25T08:28:16;6.50;;;5.20;;
5127;SDS011;2582;48.770;9.190;2023-04-25T08:30:41;5.50;;;5.00;;
5127;SDS011;2582;48.770;9.190;2023-04-25T08:33:07;5.23;;;4.83;;
5127;SDS011;2582;48.770;9.190;2023-04-25T08:35:32;5.43;;;4.93;;
5127;SDS011;2582;48.770;9.190;2023-04-25T08:37:58;4.90;;;4.37;;
5127;SDS011;2582;48.770;9.190;2023-04-25T08:40:24;4.60;;;4.20;;
5127;SDS011;2582;48.770;9.190;2023-04-25T08:42:55;5.67;;;5.17;;
5127;SDS011;2582;48.770;9.190;2023-04-25T08:45:22;5.87;;;5.27;;
5127;SDS011;2582;48.770;9.190;2023-04-25T08:47:47;4.60;;;4.20;;
5127;SDS011;2582;48.770;9.190;2023-04-25T08:50:17;4.70;;;4.27;;
5127;SDS011;2582;48.770;9.190;2023-04-25T08:52:46;4.50;;;4.10;;
5127;SDS011;2582;48.770;9.190;2023-04-25T08:55:13;5.10;;;4.70;;
5127;SDS011;2582;48.770;9.190;2023-04-25T08:57:40;5.73;;;5.10;;
5127;SDS011;2582;48.770;9.190;2023-04-25T09:00:07;6.50;;;4.77;;
5127;SDS011;2582;48.770;9.190;2023-04-25T09:02:34;5.37;;;4.93;;
5127;SDS011;2582;48.770;9.190;2023-04-25T09:05:01;7.00;;;5.00;;
5127;SDS011;2582;48.770;9.190;2023-04-25T09:07:29;5.63;;;5.10;;
5127;SDS011;2582;48.770;9.190;2023-04-25T09:09:55;4.40;;;4.00;;
5127;SDS011;2582;48.770;9.190;2023-04-25T09:12:20;5.60;;;4.43;;
5127;SDS011;2582;48.770;9.190;2023-04-25T09:17:33;5.20;;;4.80;;
5127;SDS011;2582;48.770;9.190;2023-04-25T09:20:12;8.27;;;5.43;;
5127;SDS011;2582;48.770;9.190;2023-04-25T09:22:38;9.00;;;5.50;;
5127;SDS011;2582;48.770;9.190;2023-04-25T09:25:10;5.60;;;5.07;;
5127;SDS011;2582;48.770;9.190;2023-04-25T09:27:48;6.30;;;4.93;;
5127;SDS011;2582;48.770;9.190;2023-04-25T09:30:16;4.73;;;3.87;;
5127;SDS011;2582;48.770;9.190;2023-04-25T09:32:42;6.03;;;4.53;;
5127;SDS011;2582;48.770;9.190;2023-04-25T09:35:08;5.07;;;4.57;;
5127;SDS011;2582;48.770;9.190;2023-04-25T09:37:34;5.50;;;5.00;;
5127;SDS011;2582;48.770;9.190;2023-04-25T09:40:00;5.70;;;5.10;;
5127;SDS011;2582;48.770;9.190;2023-04-25T09:42:30;6.87;;;5.40;;
5127;SDS011;2582;48.770;9.190;2023-04-25T09:44:57;7.07;;;5.67;;
5127;SDS011;2582;48.770;9.190;2023-04-25T09:47:25;8.17;;;6.20;;
5127;SDS011;2582;48.770;9.190;2023-04-25T09:49:52;6.63;;;5.93;;
5127;SDS011;2582;48.770;9.190;2023-04-25T09:52:22;6.73;;;5.60;;
5127;SDS011;2582;48.770;9.190;2023-04-25T09:54:48;5.50;;;5.00;;
5127;SDS011;2582;48.770;9.190;2023-04-25T09:57:19;6.03;;;4.93;;
5127;SDS011;2582;48.770;9.190;2023-04-25T09:59:49;4.60;;;4.30;;
5127;SDS011;2582;48.770;9.190;2023-04-25T10:02:16;5.10;;;4.70;;
5127;SDS011;2582;48.770;9.190;2023-04-25T10:04:50;5.73;;;4.50;;
5127;SDS011;2582;48.770;9.190;2023-04-25T10:07:19;8.03;;;4.23;;
5127;SDS011;2582;48.770;9.190;2023-04-25T10:09:52;4.03;;;3.70;;
5127;SDS011;2582;48.770;9.190;2023-04-25T10:12:24;4.20;;;3.70;;
5127;SDS011;2582;48.770;9.190;2023-04-25T10:14:50;3.80;;;3.00;;
5127;SDS011;2582;48.770;9.190;2023-04-25T10:17:17;6.03;;;3.63;;
5127;SDS011;2582;48.770;9.190;2023-04-25T10:19:45;3.47;;;2.80;;
5127;SDS011;2582;48.770;9.190;2023-04-25T10:22:16;2.93;;;2.73;;
5127;SDS011;2582;48.770;9.190;2023-04-25T10:24:45;3.13;;;2.10;;
5127;SDS011;2582;48.770;9.190;2023-04-25T10:27:12;4.53;;;2.47;;
5127;SDS011;2582;48.770;9.190;2023-04-25T10:29:38;2.33;;;2.13;;
5127;SDS011;2582;48.770;9.190;2023-04-25T10:32:06;2.40;;;2.20;;
5127;SDS011;2582;48.770;9.190;2023-04-25T10:34:39;3.20;;;2.53;;
5127;SDS011;2582;48.770;9.190;2023-04-25T10:37:10;2.77;;;2.57;;
5127;SDS011;2582;48.770;9.190;2023-04-25T10:39:36;2.60;;;2.40;;
5127;SDS011;2582;48.770;9.190;2023-04-25T10:42:06;3.40;;;3.10;;
5127;SDS011;2582;48.770;9.190;2023-04-25T10:44:33;3.63;;;3.30;;
5127;SDS011;2582;48.770;9.190;2023-04-25T10:47:01;2.97;;;2.73;;
5127;SDS011;2582;48.770;9.190;2023-04-25T10:52:12;1.97;;;1.77;;
5127;SDS011;2582;48.770;9.190;2023-04-25T10:57:29;3.90;;;2.83;;
5127;SDS011;2582;48.770;9.190;2023-04-25T11:00:14;3.77;;;2.80;;
5127;SDS011;2582;48.770;9.190;2023-04-25T11:02:41;4.07;;;3.60;;
5127;SDS011;2582;48.770;9.190;2023-04-25T11:05:10;5.03;;;4.53;;
5127;SDS011;2582;48.770;9.190;2023-04-25T11:10:15;3.57;;;3.27;;
5127;SDS011;2582;48.770;9.190;2023-04-25T11:12:41;3.97;;;3.57;;
5127;SDS011;2582;48.770;9.190;2023-04-25T11:15:07;3.23;;;2.77;;
5127;SDS011;2582;48.770;9.190;2023-04-25T11:17:33;4.10;;;2.97;;
5127;SDS011;2582;48.770;9.190;2023-04-25T11:19:59;3.73;;;3.43;;
5127;SDS011;2582;48.770;9.190;2023-04-25T11:22:26;4.40;;;3.40;;
5127;SDS011;2582;48.770;9.190;2023-04-25T11:24:52;4.63;;;4.10;;
5127;SDS011;2582;48.770;9.190;2023-04-25T11:27:18;4.93;;;4.40;;
5127;SDS011;2582;48.770;9.190;2023-04-25T11:29:43;5.13;;;4.63;;
5127;SDS011;2582;48.770;9.190;2023-04-25T11:32:09;2.87;;;2.67;;
5127;SDS011;2582;48.770;9.190;2023-04-25T11:34:35;3.03;;;2.80;;
5127;SDS011;2582;48.770;9.190;2023-04-25T11:37:01;3.80;;;3.30;;
5127;SDS011;2582;48.770;9.190;2023-04-25T11:39:27;4.50;;;3.10;;
5127;SDS011;2582;48.770;9.190;2023-04-25T11:41:54;3.93;;;3.47;;
5127;SDS011;2582;48.770;9.190;2023-04-25T11:44:19;3.60;;;3.30;;
5127;SDS011;2582;48.770;9.190;2023-04-25T11:46:46;2.90;;;2.30;;
5127;SDS011;2582;48.770;9.190;2023-04-25T11:49:13;2.80;;;2.60;;
5127;SDS011;2582;48.770;9.190;2023-04-25T11:51:44;3.17;;;2.90;;
5127;SDS011;2582;48.770;9.190;2023-04-25T11:54:13;3.50;;;3.20;;
5127;SDS011;2582;48.770;9.190;2023-04-25T11:56:43;4.50;;;4.10;;
5127;SDS011;2582;48.770;9.190;2023-04-25T11:59:09;4.20;;;3.90;;
5127;SDS011;2582;48.770;9.190;2023-04-25T12:01:39;4.13;;;3.73;;
5127;SDS011;2582;48.770;9.190;2023-04-25T12:06:58;4.50;;;4.10;;
5127;SDS011;2582;48.770;9.190;2023-04-25T12:09:32;4.37;;;3.87;;
5127;SDS011;2582;48.770;9.190;2023-04-25T12:11:58;4.80;;;4.30;;
5127;SDS011;2582;48.770;9.190;2023-04-25T12:14:28;4.50;;;4.10;;
5127;SDS011;2582;48.770;9.190;2023-04-25T12:16:57;4.80;;;4.37;;
5127;SDS011;2582;48.770;9.190;2023-04-25T12:19:23;5.00;;;4.60;;
5127;SDS011;2582;48.770;9.190;2023-04-25T12:21:49;5.40;;;4.90;;
5127;SDS011;2582;48.770;9.190;2023-04-25T12:27:03;5.57;;;5.07;;
5127;SDS011;2582;48.770;9.190;2023-04-25T12:29:30;4.63;;;4.23;;
5127;SDS011;2582;48.770;9.190;2023-04-25T12:31:57;5.43;;;4.93;;
5127;SDS011;2582;48.770;9.190;2023-04-25T12:34:23;5.10;;;4.70;;
5127;SDS011;2582;48.770;9.190;2023-04-25T12:36:49;4.87;;;4.40;;
5127;SDS011;2582;48.770;9.190;2023-04-25T12:39:19;4.77;;;4.10;;
5127;SDS011;2582;48.770;9.190;2023-04-25T12:41:50;5.80;;;5.30;;
5127;SDS011;2582;48.770;9.190;2023-04-25T12:44:17;5.97;;;5.17;;
5127;SDS011;2582;48.770;9.190;2023-04-25T12:46:42;7.63;;;6.60;;
5127;SDS011;2582;48.770;9.190;2023-04-25T12:49:08;4.47;;;4.07;;
5127;SDS011;2582;48.770;9.190;2023-04-25T12:51:34;6.03;;;5.00;;
5127;SDS011;2582;48.770;9.190;2023-04-25T12:54:01;6.00;;;5.50;;
5127;SDS011;2582;48.770;9.190;2023-04-25T12:56:28;5.17;;;4.73;;
5127;SDS011;2582;48.770;9.190;2023-04-25T12:58:53;6.03;;;5.43;;
5127;SDS011;2582;48.770;9.190;2023-04-25T13:01:22;7.77;;;5.40;;
5127;SDS011;2582;48.770;9.190;2023-04-25T13:03:49;6.47;;;5.20;;
5127;SDS011;2582;48.770;9.190;2023-04-25T13:06:14;5.00;;;4.60;;
5127;SDS011;2582;48.770;9.190;2023-04-25T13:08:41;6.10;;;4.47;;
5127;SDS011;2582;48.770;9.190;2023-04-25T13:11:07;6.13;;;4.80;;
5127;SDS011;2582;48.770;9.190;2023-04-25T13:13:33;5.03;;;4.63;;
5127;SDS011;2582;48.770;9.190;2023-04-25T13:16:02;5.40;;;4.90;;
5127;SDS011;2582;48.770;9.190;2023-04-25T13:18:29;5.60;;;5.00;;
5127;SDS011;2582;48.770;9.190;2023-04-25T13:20:55;8.93;;;4.70;;
5127;SDS011;2582;48.770;9.190;2023-04-25T13:23:22;6.30;;;5.43;;
5127;SDS011;2582;48.770;9.190;2023-04-25T13:25:48;5.33;;;4.93;;
5127;SDS011;2582;48.770;9.190;2023-04-25T13:28:14;6.20;;;5.47;;
5127;SDS011;2582;48.770;9.190;2023-04-25T13:30:40;6.10;;;5.50;;
5127;SDS011;2582;48.770;9.190;2023-04-25T13:33:06;6.50;;;5.90;;
5127;SDS011;2582;48.770;9.190;2023-04-25T13:35:32;7.10;;;6.13;;
5127;SDS011;2582;48.770;9.190;2023-04-25T13:37:59;6.03;;;5.43;;
5127;SDS011;2582;48.770;9.190;2023-04-25T13:40:25;6.63;;;6.03;;
5127;SDS011;2582;48.770;9.190;2023-04-25T13:42:51;5.70;;;5.10;;
5127;SDS011;2582;48.770;9.190;2023-04-25T13:45:17;8.70;;;6.53;;
5127;SDS011;2582;48.770;9.190;2023-04-25T13:47:43;7.50;;;6.70;;
5127;SDS011;2582;48.770;9.190;2023-04-25T13:50:09;8.77;;;7.87;;
5127;SDS011;2582;48.770;9.190;2023-04-25T13:52:35;8.80;;;7.97;;
5127;SDS011;2582;48.770;9.190;2023-04-25T13:55:00;9.13;;;7.57;;
5127;SDS011;2582;48.770;9.190;2023-04-25T13:57:28;10.87;;;8.73;;
5127;SDS011;2582;48.770;9.190;2023-04-25T13:59:55;10.20;;;9.20;;
5127;SDS011;2582;48.770;9.190;2023-04-25T14:02:20;9.60;;;7.90;;
5127;SDS011;2582;48.770;9.190;2023-04-25T14:04:46;10.60;;;9.10;;
5127;SDS011;2582;48.770;9.190;2023-04-25T14:07:12;10.23;;;9.23;;
5127;SDS011;2582;48.770;9.190;2023-04-25T14:09:40;9.97;;;8.67;;
5127;SDS011;2582;48.770;9.190;2023-04-25T14:12:06;9.30;;;8.30;;
5127;SDS011;2582;48.770;9.190;2023-04-25T14:14:32;8.00;;;7.20;;
5127;SDS011;2582;48.770;9.190;2023-04-25T14:16:57;9.43;;;7.20;;
5127;SDS011;2582;48.770;9.190;2023-04-25T14:19:23;9.03;;;6.77;;
5127;SDS011;2582;48.770;9.190;2023-04-25T14:21:49;8.43;;;7.63;;
5127;SDS011;2582;48.770;9.190;2023-04-25T14:24:15;6.93;;;6.30;;
5127;SDS011;2582;48.770;9.190;2023-04-25T14:26:41;7.60;;;6.77;;
5127;SDS011;2582;48.770;9.190;2023-04-25T14:29:07;7.57;;;6.87;;
5127;SDS011;2582;48.770;9.190;2023-04-25T14:31:34;6.10;;;5.60;;
5127;SDS011;2582;48.770;9.190;2023-04-25T14:34:00;6.67;;;6.07;;
5127;SDS011;2582;48.770;9.190;2023-04-25T14:36:30;7.10;;;6.40;;
5127;SDS011;2582;48.770;9.190;2023-04-25T14:38:56;6.23;;;5.50;;
5127;SDS011;2582;48.770;9.190;2023-04-25T14:41:22;5.53;;;5.10;;
5127;SDS011;2582;48.770;9.190;2023-04-25T14:43:48;5.70;;;5.20;;
5127;SDS011;2582;48.770;9.190;2023-04-25T14:46:13;5.50;;;5.00;;
5127;SDS011;2582;48.770;9.190;2023-04-25T14:48:39;5.90;;;5.30;;
5127;SDS011;2582;48.770;9.190;2023-04-25T14:51:05;4.27;;;3.87;;
5127;SDS011;2582;48.770;9.190;2023-04-25T14:53:31;6.67;;;4.97;;
5127;SDS011;2582;48.770;9.190;2023-04-25T14:55:57;5.50;;;4.97;;
5127;SDS011;2582;48.770;9.190;2023-04-25T14:58:22;5.20;;;4.80;;
5127;SDS011;2582;48.770;9.190;2023-04-25T15:00:48;5.30;;;4.80;;
5127;SDS011;2582;48.770;9.190;2023-04-25T15:03:14;6.73;;;5.33;;
5127;SDS011;2582;48.770;9.190;2023-04-25T15:05:41;5.97;;;5.47;;
5127;SDS011;2582;48.770;9.190;2023-04-25T15:08:07;5.40;;;4.90;;
5127;SDS011;2582;48.770;9.190;2023-04-25T15:10:33;5.63;;;5.13;;
5127;SDS011;2582;48.770;9.190;2023-04-25T15:12:59;6.00;;;5.50;;
5127;SDS011;2582;48.770;9.190;2023-04-25T15:15:25;5.97;;;5.47;;
5127;SDS011;2582;48.770;9.190;2023-04-25T15:17:51;6.07;;;5.50;;
5127;SDS011;2582;48.770;9.190;2023-04-25T15:20:18;7.60;;;5.73;;
5127;SDS011;2582;48.770;9.190;2023-04-25T15:22:44;7.67;;;6.47;;
5127;SDS011;2582;48.770;9.190;2023-04-25T15:25:14;8.40;;;7.50;;
5127;SDS011;2582;48.770;9.190;2023-04-25T15:27:42;7.60;;;5.83;;